sensor_id;sensor_type;location;lat;lon;timestamp;P1;durP1;ratioP1;P2;durP2;ratioP2
22015;SDS011;64992;51.698;-0.292;2024-01-15T00:02:06;10.77;;;9.98;;
22015;SDS011;64992;51.698;-0.292;2024-01-15T00:04:37;12.57;;;10.40;;
22015;SDS011;64992;51.698;-0.292;2024-01-15T00:07:03;11.98;;;10.98;;
22015;SDS011;64992;51.698;-0.292;2024-01-15T00:09:29;11.73;;;11.05;;
22015;SDS011;64992;51.698;-0.292;2024-01-15T00:11:55;12.45;;;11.75;;
22015;SDS011;64992;51.698;-0.292;2024-01-15T00:14:22;13.02;;;12.13;;
22015;SDS011;64992;51.698;-0.292;2024-01-15T00:16:48;12.90;;;12.10;;
22015;SDS011;64992;51.698;-0.292;2024-01-15T00:19:16;12.75;;;11.85;;
22015;SDS011;64992;51.698;-0.292;2024-01-15T00:21:42;13.18;;;12.27;;
22015;SDS011;64992;51.698;-0.292;2024-01-15T00:24:08;13.05;;;12.25;;
22015;SDS011;64992;51.698;-0.292;2024-01-15T00:26:34;13.93;;;13.13;;
22015;SDS011;64992;51.698;-0.292;2024-01-15T00:29:00;12.23;;;11.40;;
22015;SDS011;64992;51.698;-0.292;2024-01-15T00:31:26;12.13;;;11.38;;
22015;SDS011;64992;51.698;-0.292;2024-01-15T00:33:52;12.32;;;11.27;;
22015;SDS011;64992;51.698;-0.292;2024-01-15T00:36:18;11.48;;;10.77;;
22015;SDS011;64992;51.698;-0.292;2024-01-15T00:38:44;12.95;;;12.05;;
22015;SDS011;64992;51.698;-0.292;2024-01-15T00:41:12;14.07;;;13.18;;
22015;SDS011;64992;51.698;-0.292;2024-01-15T00:43:38;13.15;;;12.45;;
22015;SDS011;64992;51.698;-0.292;2024-01-15T00:46:04;12.68;;;12.00;;
22015;SDS011;64992;51.698;-0.292;2024-01-15T00:48:30;12.68;;;11.98;;
22015;SDS011;64992;51.698;-0.292;2024-01-15T00:50:56;13.60;;;12.85;;
22015;SDS011;64992;51.698;-0.292;2024-01-15T00:53:22;13.30;;;12.45;;
22015;SDS011;64992;51.698;-0.292;2024-01-15T00:55:48;12.77;;;11.88;;
22015;SDS011;64992;51.698;-0.292;2024-01-15T00:58:14;13.50;;;12.32;;
22015;SDS011;64992;51.698;-0.292;2024-01-15T01:00:41;13.05;;;12.25;;
22015;SDS011;64992;51.698;-0.292;2024-01-15T01:03:07;12.65;;;11.93;;
22015;SDS011;64992;51.698;-0.292;2024-01-15T01:05:33;13.20;;;12.43;;
22015;SDS011;64992;51.698;-0.292;2024-01-15T01:07:59;12.75;;;12.05;;
22015;SDS011;64992;51.698;-0.292;2024-01-15T01:10:25;13.75;;;12.30;;
22015;SDS011;64992;51.698;-0.292;2024-01-15T01:12:51;15.65;;;14.75;;
22015;SDS011;64992;51.698;-0.292;2024-01-15T01:15:17;15.95;;;14.85;;
22015;SDS011;64992;51.698;-0.292;2024-01-15T01:17:43;12.68;;;12.07;;
22015;SDS011;64992;51.698;-0.292;2024-01-15T01:20:09;13.15;;;12.52;;
22015;SDS011;64992;51.698;-0.292;2024-01-15T01:22:36;15.88;;;14.88;;
22015;SDS011;64992;51.698;-0.292;2024-01-15T01:25:02;14.98;;;14.02;;
22015;SDS011;64992;51.698;-0.292;2024-01-15T01:27:28;14.65;;;13.55;;
22015;SDS011;64992;51.698;-0.292;2024-01-15T01:29:54;15.90;;;14.98;;
22015;SDS011;64992;51.698;-0.292;2024-01-15T01:32:20;13.95;;;13.15;;
22015;SDS011;64992;51.698;-0.292;2024-01-15T01:34:46;15.50;;;14.60;;
22015;SDS011;64992;51.698;-0.292;2024-01-15T01:37:12;19.13;;;17.75;;
22015;SDS011;64992;51.698;-0.292;2024-01-15T01:39:39;16.70;;;15.50;;
22015;SDS011;64992;51.698;-0.292;2024-01-15T01:42:05;16.55;;;15.35;;
22015;SDS011;64992;51.698;-0.292;2024-01-15T01:44:31;18.83;;;17.63;;
22015;SDS011;64992;51.698;-0.292;2024-01-15T01:46:58;17.10;;;15.98;;
22015;SDS011;64992;51.698;-0.292;2024-01-15T01:49:24;16.20;;;15.20;;
22015;SDS011;64992;51.698;-0.292;2024-01-15T01:51:50;20.10;;;18.95;;
22015;SDS011;64992;51.698;-0.292;2024-01-15T01:54:16;16.83;;;15.93;;
22015;SDS011;64992;51.698;-0.292;2024-01-15T01:56:43;17.58;;;16.60;;
22015;SDS011;64992;51.698;-0.292;2024-01-15T01:59:09;18.13;;;17.02;;
22015;SDS011;64992;51.698;-0.292;2024-01-15T02:01:37;18.23;;;16.70;;
22015;SDS011;64992;51.698;-0.292;2024-01-15T02:04:03;18.67;;;17.33;;
22015;SDS011;64992;51.698;-0.292;2024-01-15T02:06:29;18.75;;;17.58;;
22015;SDS011;64992;51.698;-0.292;2024-01-15T02:08:55;20.13;;;18.83;;
22015;SDS011;64992;51.698;-0.292;2024-01-15T02:11:21;16.08;;;15.23;;
22015;SDS011;64992;51.698;-0.292;2024-01-15T02:13:47;19.45;;;18.23;;
22015;SDS011;64992;51.698;-0.292;2024-01-15T02:16:13;18.65;;;17.65;;
22015;SDS011;64992;51.698;-0.292;2024-01-15T02:18:40;19.73;;;18.63;;
22015;SDS011;64992;51.698;-0.292;2024-01-15T02:21:06;18.58;;;17.38;;
22015;SDS011;64992;51.698;-0.292;2024-01-15T02:23:33;19.42;;;18.33;;
22015;SDS011;64992;51.698;-0.292;2024-01-15T02:25:59;19.52;;;18.55;;
22015;SDS011;64992;51.698;-0.292;2024-01-15T02:28:25;20.00;;;18.85;;
22015;SDS011;64992;51.698;-0.292;2024-01-15T02:30:51;19.35;;;18.13;;
22015;SDS011;64992;51.698;-0.292;2024-01-15T02:33:17;22.70;;;21.20;;
22015;SDS011;64992;51.698;-0.292;2024-01-15T02:35:43;21.58;;;20.30;;
22015;SDS011;64992;51.698;-0.292;2024-01-15T02:38:11;20.80;;;19.40;;
22015;SDS011;64992;51.698;-0.292;2024-01-15T02:40:37;18.35;;;17.40;;
22015;SDS011;64992;51.698;-0.292;2024-01-15T02:43:03;18.73;;;17.63;;
22015;SDS011;64992;51.698;-0.292;2024-01-15T02:45:30;19.77;;;18.58;;
22015;SDS011;64992;51.698;-0.292;2024-01-15T02:47:56;18.35;;;17.35;;
22015;SDS011;64992;51.698;-0.292;2024-01-15T02:50:22;17.67;;;16.77;;
22015;SDS011;64992;51.698;-0.292;2024-01-15T02:52:48;15.15;;;14.40;;
22015;SDS011;64992;51.698;-0.292;2024-01-15T02:55:14;14.60;;;13.77;;
22015;SDS011;64992;51.698;-0.292;2024-01-15T02:57:40;15.68;;;14.95;;
22015;SDS011;64992;51.698;-0.292;2024-01-15T03:00:06;14.10;;;13.30;;
22015;SDS011;64992;51.698;-0.292;2024-01-15T03:02:35;16.40;;;15.18;;
22015;SDS011;64992;51.698;-0.292;2024-01-15T03:05:02;13.45;;;12.70;;
22015;SDS011;64992;51.698;-0.292;2024-01-15T03:07:28;14.15;;;13.35;;
22015;SDS011;64992;51.698;-0.292;2024-01-15T03:09:54;14.80;;;13.90;;
22015;SDS011;64992;51.698;-0.292;2024-01-15T03:12:20;12.40;;;11.70;;
22015;SDS011;64992;51.698;-0.292;2024-01-15T03:14:46;14.70;;;13.95;;
22015;SDS011;64992;51.698;-0.292;2024-01-15T03:17:12;14.48;;;13.30;;
22015;SDS011;64992;51.698;-0.292;2024-01-15T03:19:38;14.35;;;13.65;;
22015;SDS011;64992;51.698;-0.292;2024-01-15T03:22:04;14.32;;;13.57;;
22015;SDS011;64992;51.698;-0.292;2024-01-15T03:24:32;14.45;;;13.75;;
22015;SDS011;64992;51.698;-0.292;2024-01-15T03:26:58;13.57;;;12.80;;
22015;SDS011;64992;51.698;-0.292;2024-01-15T03:29:25;14.50;;;13.80;;
22015;SDS011;64992;51.698;-0.292;2024-01-15T03:31:51;14.18;;;13.48;;
22015;SDS011;64992;51.698;-0.292;2024-01-15T03:34:17;17.50;;;16.65;;
22015;SDS011;64992;51.698;-0.292;2024-01-15T03:36:43;15.27;;;14.32;;
22015;SDS011;64992;51.698;-0.292;2024-01-15T03:39:09;17.85;;;16.85;;
22015;SDS011;64992;51.698;-0.292;2024-01-15T03:41:36;19.13;;;17.92;;
22015;SDS011;64992;51.698;-0.292;2024-01-15T03:44:02;17.95;;;17.05;;
22015;SDS011;64992;51.698;-0.292;2024-01-15T03:46:28;17.38;;;16.25;;
22015;SDS011;64992;51.698;-0.292;2024-01-15T03:48:54;16.42;;;15.52;;
22015;SDS011;64992;51.698;-0.292;2024-01-15T03:51:20;17.10;;;15.73;;
22015;SDS011;64992;51.698;-0.292;2024-01-15T03:53:46;17.85;;;16.85;;
22015;SDS011;64992;51.698;-0.292;2024-01-15T03:56:12;14.60;;;13.93;;
22015;SDS011;64992;51.698;-0.292;2024-01-15T03:58:38;17.38;;;16.38;;
22015;SDS011;64992;51.698;-0.292;2024-01-15T04:01:07;16.55;;;15.45;;
22015;SDS011;64992;51.698;-0.292;2024-01-15T04:03:33;18.58;;;17.02;;
22015;SDS011;64992;51.698;-0.292;2024-01-15T04:05:59;19.27;;;17.40;;
22015;SDS011;64992;51.698;-0.292;2024-01-15T04:08:25;17.02;;;16.02;;
22015;SDS011;64992;51.698;-0.292;2024-01-15T04:10:51;18.25;;;17.25;;
22015;SDS011;64992;51.698;-0.292;2024-01-15T04:13:17;17.73;;;16.83;;
22015;SDS011;64992;51.698;-0.292;2024-01-15T04:15:44;19.45;;;18.33;;
22015;SDS011;64992;51.698;-0.292;2024-01-15T04:18:10;20.02;;;18.92;;
22015;SDS011;64992;51.698;-0.292;2024-01-15T04:20:36;19.45;;;18.15;;
22015;SDS011;64992;51.698;-0.292;2024-01-15T04:23:03;18.67;;;17.67;;
22015;SDS011;64992;51.698;-0.292;2024-01-15T04:25:29;20.13;;;19.02;;
22015;SDS011;64992;51.698;-0.292;2024-01-15T04:27:56;21.02;;;19.73;;
22015;SDS011;64992;51.698;-0.292;2024-01-15T04:30:22;19.40;;;18.40;;
22015;SDS011;64992;51.698;-0.292;2024-01-15T04:32:48;21.08;;;19.88;;
22015;SDS011;64992;51.698;-0.292;2024-01-15T04:35:14;21.60;;;20.40;;
22015;SDS011;64992;51.698;-0.292;2024-01-15T04:37:40;20.05;;;19.05;;
22015;SDS011;64992;51.698;-0.292;2024-01-15T04:40:06;21.80;;;20.40;;
22015;SDS011;64992;51.698;-0.292;2024-01-15T04:42:32;22.50;;;21.02;;
22015;SDS011;64992;51.698;-0.292;2024-01-15T04:44:58;23.75;;;21.85;;
22015;SDS011;64992;51.698;-0.292;2024-01-15T04:47:24;20.35;;;19.25;;
22015;SDS011;64992;51.698;-0.292;2024-01-15T04:49:51;24.92;;;23.63;;
22015;SDS011;64992;51.698;-0.292;2024-01-15T04:52:17;24.02;;;22.55;;
22015;SDS011;64992;51.698;-0.292;2024-01-15T04:54:43;26.10;;;24.70;;
22015;SDS011;64992;51.698;-0.292;2024-01-15T04:57:09;26.00;;;24.23;;
22015;SDS011;64992;51.698;-0.292;2024-01-15T04:59:35;26.63;;;24.85;;
22015;SDS011;64992;51.698;-0.292;2024-01-15T05:02:01;22.60;;;21.35;;
22015;SDS011;64992;51.698;-0.292;2024-01-15T05:04:27;24.33;;;23.02;;
22015;SDS011;64992;51.698;-0.292;2024-01-15T05:06:53;25.30;;;23.95;;
22015;SDS011;64992;51.698;-0.292;2024-01-15T05:09:19;22.08;;;20.77;;
22015;SDS011;64992;51.698;-0.292;2024-01-15T05:11:45;25.95;;;24.55;;
22015;SDS011;64992;51.698;-0.292;2024-01-15T05:14:11;27.88;;;26.05;;
22015;SDS011;64992;51.698;-0.292;2024-01-15T05:16:46;25.98;;;24.58;;
22015;SDS011;64992;51.698;-0.292;2024-01-15T05:19:12;28.50;;;26.90;;
22015;SDS011;64992;51.698;-0.292;2024-01-15T05:21:38;28.83;;;27.23;;
22015;SDS011;64992;51.698;-0.292;2024-01-15T05:24:04;30.17;;;28.65;;
22015;SDS011;64992;51.698;-0.292;2024-01-15T05:26:30;26.65;;;25.20;;
22015;SDS011;64992;51.698;-0.292;2024-01-15T05:28:56;27.90;;;26.55;;
22015;SDS011;64992;51.698;-0.292;2024-01-15T05:31:23;29.33;;;27.83;;
22015;SDS011;64992;51.698;-0.292;2024-01-15T05:33:49;29.73;;;28.23;;
22015;SDS011;64992;51.698;-0.292;2024-01-15T05:36:14;26.90;;;25.48;;
22015;SDS011;64992;51.698;-0.292;2024-01-15T05:38:40;26.17;;;24.77;;
22015;SDS011;64992;51.698;-0.292;2024-01-15T05:41:07;23.55;;;22.35;;
22015;SDS011;64992;51.698;-0.292;2024-01-15T05:43:33;19.92;;;18.92;;
22015;SDS011;64992;51.698;-0.292;2024-01-15T05:45:59;21.13;;;20.13;;
22015;SDS011;64992;51.698;-0.292;2024-01-15T05:48:25;18.48;;;17.40;;
22015;SDS011;64992;51.698;-0.292;2024-01-15T05:50:50;18.38;;;17.48;;
22015;SDS011;64992;51.698;-0.292;2024-01-15T05:53:16;17.35;;;16.55;;
22015;SDS011;64992;51.698;-0.292;2024-01-15T05:55:42;16.33;;;15.52;;
22015;SDS011;64992;51.698;-0.292;2024-01-15T05:58:08;16.65;;;15.75;;
22015;SDS011;64992;51.698;-0.292;2024-01-15T06:00:34;15.60;;;14.82;;
22015;SDS011;64992;51.698;-0.292;2024-01-15T06:03:03;14.48;;;13.70;;
22015;SDS011;64992;51.698;-0.292;2024-01-15T06:05:29;17.00;;;16.10;;
22015;SDS011;64992;51.698;-0.292;2024-01-15T06:07:55;15.43;;;14.68;;
22015;SDS011;64992;51.698;-0.292;2024-01-15T06:10:21;14.40;;;13.60;;
22015;SDS011;64992;51.698;-0.292;2024-01-15T06:12:47;16.20;;;15.40;;
22015;SDS011;64992;51.698;-0.292;2024-01-15T06:15:13;15.50;;;14.60;;
22015;SDS011;64992;51.698;-0.292;2024-01-15T06:17:39;15.55;;;14.73;;
22015;SDS011;64992;51.698;-0.292;2024-01-15T06:20:05;14.95;;;14.18;;
22015;SDS011;64992;51.698;-0.292;2024-01-15T06:22:32;18.25;;;17.15;;
22015;SDS011;64992;51.698;-0.292;2024-01-15T06:24:58;16.45;;;15.65;;
22015;SDS011;64992;51.698;-0.292;2024-01-15T06:27:24;17.13;;;16.33;;
22015;SDS011;64992;51.698;-0.292;2024-01-15T06:29:50;18.20;;;16.50;;
22015;SDS011;64992;51.698;-0.292;2024-01-15T06:32:16;14.55;;;13.15;;
22015;SDS011;64992;51.698;-0.292;2024-01-15T06:34:43;14.10;;;13.18;;
22015;SDS011;64992;51.698;-0.292;2024-01-15T06:37:09;14.68;;;13.57;;
22015;SDS011;64992;51.698;-0.292;2024-01-15T06:39:35;15.57;;;14.77;;
22015;SDS011;64992;51.698;-0.292;2024-01-15T06:42:01;16.92;;;15.57;;
22015;SDS011;64992;51.698;-0.292;2024-01-15T06:44:27;16.00;;;15.23;;
22015;SDS011;64992;51.698;-0.292;2024-01-15T06:46:53;15.80;;;14.85;;
22015;SDS011;64992;51.698;-0.292;2024-01-15T06:49:22;16.38;;;15.57;;
22015;SDS011;64992;51.698;-0.292;2024-01-15T06:51:48;14.68;;;13.85;;
22015;SDS011;64992;51.698;-0.292;2024-01-15T06:54:14;17.40;;;15.32;;
22015;SDS011;64992;51.698;-0.292;2024-01-15T06:56:40;12.85;;;12.15;;
22015;SDS011;64992;51.698;-0.292;2024-01-15T06:59:06;14.30;;;13.60;;
22015;SDS011;64992;51.698;-0.292;2024-01-15T07:01:32;15.60;;;14.80;;
22015;SDS011;64992;51.698;-0.292;2024-01-15T07:03:58;15.65;;;14.73;;
22015;SDS011;64992;51.698;-0.292;2024-01-15T07:06:24;15.07;;;14.05;;
22015;SDS011;64992;51.698;-0.292;2024-01-15T07:08:50;17.00;;;16.13;;
22015;SDS011;64992;51.698;-0.292;2024-01-15T07:11:16;14.40;;;13.70;;
22015;SDS011;64992;51.698;-0.292;2024-01-15T07:13:42;13.98;;;13.38;;
22015;SDS011;64992;51.698;-0.292;2024-01-15T07:16:08;17.30;;;16.23;;
22015;SDS011;64992;51.698;-0.292;2024-01-15T07:18:34;15.75;;;14.85;;
22015;SDS011;64992;51.698;-0.292;2024-01-15T07:21:01;16.70;;;15.90;;
22015;SDS011;64992;51.698;-0.292;2024-01-15T07:23:27;18.05;;;17.10;;
22015;SDS011;64992;51.698;-0.292;2024-01-15T07:25:53;18.08;;;17.20;;
22015;SDS011;64992;51.698;-0.292;2024-01-15T07:28:19;18.42;;;17.52;;
22015;SDS011;64992;51.698;-0.292;2024-01-15T07:30:45;16.17;;;15.38;;
22015;SDS011;64992;51.698;-0.292;2024-01-15T07:33:11;17.08;;;16.25;;
22015;SDS011;64992;51.698;-0.292;2024-01-15T07:35:37;16.95;;;16.15;;
22015;SDS011;64992;51.698;-0.292;2024-01-15T07:38:03;17.58;;;16.63;;
22015;SDS011;64992;51.698;-0.292;2024-01-15T07:40:29;17.65;;;16.77;;
22015;SDS011;64992;51.698;-0.292;2024-01-15T07:42:55;19.60;;;18.60;;
22015;SDS011;64992;51.698;-0.292;2024-01-15T07:45:21;18.13;;;17.05;;
22015;SDS011;64992;51.698;-0.292;2024-01-15T07:47:47;17.52;;;16.63;;
22015;SDS011;64992;51.698;-0.292;2024-01-15T07:50:14;16.70;;;15.90;;
22015;SDS011;64992;51.698;-0.292;2024-01-15T07:52:40;16.42;;;15.50;;
22015;SDS011;64992;51.698;-0.292;2024-01-15T07:55:09;17.35;;;16.48;;
22015;SDS011;64992;51.698;-0.292;2024-01-15T07:57:35;15.88;;;14.90;;
22015;SDS011;64992;51.698;-0.292;2024-01-15T08:00:02;16.45;;;15.20;;
22015;SDS011;64992;51.698;-0.292;2024-01-15T08:02:30;21.20;;;16.33;;
22015;SDS011;64992;51.698;-0.292;2024-01-15T08:04:57;17.55;;;16.48;;
22015;SDS011;64992;51.698;-0.292;2024-01-15T08:07:23;17.95;;;16.27;;
22015;SDS011;64992;51.698;-0.292;2024-01-15T08:09:50;17.52;;;16.30;;
22015;SDS011;64992;51.698;-0.292;2024-01-15T08:12:16;17.45;;;16.55;;
22015;SDS011;64992;51.698;-0.292;2024-01-15T08:14:42;17.27;;;16.35;;
22015;SDS011;64992;51.698;-0.292;2024-01-15T08:17:08;16.42;;;15.65;;
22015;SDS011;64992;51.698;-0.292;2024-01-15T08:19:34;17.30;;;16.30;;
22015;SDS011;64992;51.698;-0.292;2024-01-15T08:22:00;17.50;;;16.50;;
22015;SDS011;64992;51.698;-0.292;2024-01-15T08:24:26;13.93;;;13.02;;
22015;SDS011;64992;51.698;-0.292;2024-01-15T08:26:53;13.50;;;12.73;;
22015;SDS011;64992;51.698;-0.292;2024-01-15T08:29:21;10.80;;;10.25;;
22015;SDS011;64992;51.698;-0.292;2024-01-15T08:31:48;12.88;;;11.70;;
22015;SDS011;64992;51.698;-0.292;2024-01-15T08:34:14;12.55;;;11.95;;
22015;SDS011;64992;51.698;-0.292;2024-01-15T08:36:40;13.88;;;12.85;;
22015;SDS011;64992;51.698;-0.292;2024-01-15T08:39:06;11.95;;;11.35;;
22015;SDS011;64992;51.698;-0.292;2024-01-15T08:41:34;11.90;;;11.38;;
22015;SDS011;64992;51.698;-0.292;2024-01-15T08:44:00;12.27;;;11.68;;
22015;SDS011;64992;51.698;-0.292;2024-01-15T08:46:27;11.27;;;10.63;;
22015;SDS011;64992;51.698;-0.292;2024-01-15T08:48:53;12.40;;;11.85;;
22015;SDS011;64992;51.698;-0.292;2024-01-15T08:51:19;12.32;;;10.98;;
22015;SDS011;64992;51.698;-0.292;2024-01-15T08:53:46;8.50;;;8.10;;
22015;SDS011;64992;51.698;-0.292;2024-01-15T08:56:12;10.50;;;9.68;;
22015;SDS011;64992;51.698;-0.292;2024-01-15T08:58:38;11.02;;;10.07;;
22015;SDS011;64992;51.698;-0.292;2024-01-15T09:01:04;10.90;;;10.30;;
22015;SDS011;64992;51.698;-0.292;2024-01-15T09:03:30;11.13;;;10.48;;
22015;SDS011;64992;51.698;-0.292;2024-01-15T09:05:57;9.95;;;9.35;;
22015;SDS011;64992;51.698;-0.292;2024-01-15T09:08:23;9.93;;;9.43;;
22015;SDS011;64992;51.698;-0.292;2024-01-15T09:10:49;10.18;;;9.68;;
22015;SDS011;64992;51.698;-0.292;2024-01-15T09:13:16;9.32;;;8.93;;
22015;SDS011;64992;51.698;-0.292;2024-01-15T09:15:42;8.23;;;7.82;;
22015;SDS011;64992;51.698;-0.292;2024-01-15T09:18:08;10.20;;;9.70;;
22015;SDS011;64992;51.698;-0.292;2024-01-15T09:20:35;9.85;;;9.45;;
22015;SDS011;64992;51.698;-0.292;2024-01-15T09:23:01;9.13;;;8.63;;
22015;SDS011;64992;51.698;-0.292;2024-01-15T09:25:27;9.40;;;8.73;;
22015;SDS011;64992;51.698;-0.292;2024-01-15T09:27:54;10.00;;;9.50;;
22015;SDS011;64992;51.698;-0.292;2024-01-15T09:30:20;8.77;;;8.32;;
22015;SDS011;64992;51.698;-0.292;2024-01-15T09:32:46;10.88;;;10.02;;
22015;SDS011;64992;51.698;-0.292;2024-01-15T09:35:12;9.18;;;8.32;;
22015;SDS011;64992;51.698;-0.292;2024-01-15T09:37:39;8.95;;;8.45;;
22015;SDS011;64992;51.698;-0.292;2024-01-15T09:40:05;10.10;;;9.60;;
22015;SDS011;64992;51.698;-0.292;2024-01-15T09:42:31;9.45;;;8.70;;
22015;SDS011;64992;51.698;-0.292;2024-01-15T09:44:58;11.23;;;10.73;;
22015;SDS011;64992;51.698;-0.292;2024-01-15T09:47:23;8.35;;;7.82;;
22015;SDS011;64992;51.698;-0.292;2024-01-15T09:49:50;7.50;;;7.20;;
22015;SDS011;64992;51.698;-0.292;2024-01-15T09:52:16;8.50;;;7.97;;
22015;SDS011;64992;51.698;-0.292;2024-01-15T09:54:45;9.05;;;8.55;;
22015;SDS011;64992;51.698;-0.292;2024-01-15T09:57:12;9.18;;;8.68;;
22015;SDS011;64992;51.698;-0.292;2024-01-15T09:59:38;10.02;;;9.40;;
22015;SDS011;64992;51.698;-0.292;2024-01-15T10:02:05;7.85;;;7.35;;
22015;SDS011;64992;51.698;-0.292;2024-01-15T10:04:32;6.93;;;6.53;;
22015;SDS011;64992;51.698;-0.292;2024-01-15T10:06:58;6.65;;;6.28;;
22015;SDS011;64992;51.698;-0.292;2024-01-15T10:09:26;12.25;;;5.75;;
22015;SDS011;64992;51.698;-0.292;2024-01-15T10:11:52;9.23;;;8.48;;
22015;SDS011;64992;51.698;-0.292;2024-01-15T10:14:19;6.50;;;6.10;;
22015;SDS011;64992;51.698;-0.292;2024-01-15T10:16:45;7.57;;;7.00;;
22015;SDS011;64992;51.698;-0.292;2024-01-15T10:19:11;7.35;;;6.85;;
22015;SDS011;64992;51.698;-0.292;2024-01-15T10:21:37;15.93;;;6.82;;
22015;SDS011;64992;51.698;-0.292;2024-01-15T10:24:04;6.93;;;6.50;;
22015;SDS011;64992;51.698;-0.292;2024-01-15T10:26:30;8.63;;;8.02;;
22015;SDS011;64992;51.698;-0.292;2024-01-15T10:28:58;12.60;;;6.65;;
22015;SDS011;64992;51.698;-0.292;2024-01-15T10:31:25;8.27;;;7.63;;
22015;SDS011;64992;51.698;-0.292;2024-01-15T10:33:51;6.45;;;6.00;;
22015;SDS011;64992;51.698;-0.292;2024-01-15T10:36:17;6.65;;;6.25;;
22015;SDS011;64992;51.698;-0.292;2024-01-15T10:38:43;7.45;;;6.80;;
22015;SDS011;64992;51.698;-0.292;2024-01-15T10:41:10;6.43;;;6.13;;
22015;SDS011;64992;51.698;-0.292;2024-01-15T10:43:36;9.00;;;8.43;;
22015;SDS011;64992;51.698;-0.292;2024-01-15T10:46:02;16.15;;;6.45;;
22015;SDS011;64992;51.698;-0.292;2024-01-15T10:48:28;7.13;;;6.57;;
22015;SDS011;64992;51.698;-0.292;2024-01-15T10:50:56;7.78;;;7.35;;
22015;SDS011;64992;51.698;-0.292;2024-01-15T10:53:23;7.90;;;7.25;;
22015;SDS011;64992;51.698;-0.292;2024-01-15T10:55:53;7.53;;;6.88;;
22015;SDS011;64992;51.698;-0.292;2024-01-15T10:58:20;10.50;;;8.20;;
22015;SDS011;64992;51.698;-0.292;2024-01-15T11:00:48;7.35;;;6.97;;
22015;SDS011;64992;51.698;-0.292;2024-01-15T11:03:14;6.05;;;5.72;;
22015;SDS011;64992;51.698;-0.292;2024-01-15T11:05:42;13.07;;;8.25;;
22015;SDS011;64992;51.698;-0.292;2024-01-15T11:08:08;7.18;;;6.00;;
22015;SDS011;64992;51.698;-0.292;2024-01-15T11:13:05;10.57;;;5.95;;
22015;SDS011;64992;51.698;-0.292;2024-01-15T11:15:31;7.50;;;6.78;;
22015;SDS011;64992;51.698;-0.292;2024-01-15T11:18:01;5.90;;;5.50;;
22015;SDS011;64992;51.698;-0.292;2024-01-15T11:20:28;12.65;;;5.82;;
22015;SDS011;64992;51.698;-0.292;2024-01-15T11:22:56;9.80;;;6.53;;
22015;SDS011;64992;51.698;-0.292;2024-01-15T11:25:24;6.43;;;5.95;;
22015;SDS011;64992;51.698;-0.292;2024-01-15T11:27:59;5.32;;;5.03;;
22015;SDS011;64992;51.698;-0.292;2024-01-15T11:30:25;5.43;;;5.15;;
22015;SDS011;64992;51.698;-0.292;2024-01-15T11:32:52;5.63;;;5.32;;
22015;SDS011;64992;51.698;-0.292;2024-01-15T11:35:18;6.05;;;5.55;;
22015;SDS011;64992;51.698;-0.292;2024-01-15T11:42:45;6.03;;;5.60;;
22015;SDS011;64992;51.698;-0.292;2024-01-15T11:45:12;5.70;;;5.30;;
22015;SDS011;64992;51.698;-0.292;2024-01-15T11:50:17;6.25;;;5.95;;
22015;SDS011;64992;51.698;-0.292;2024-01-15T11:52:44;5.90;;;5.40;;
22015;SDS011;64992;51.698;-0.292;2024-01-15T11:55:19;6.13;;;5.57;;
22015;SDS011;64992;51.698;-0.292;2024-01-15T12:00:12;8.40;;;7.95;;
22015;SDS011;64992;51.698;-0.292;2024-01-15T12:02:42;8.40;;;7.55;;
22015;SDS011;64992;51.698;-0.292;2024-01-15T12:05:08;6.05;;;5.65;;
22015;SDS011;64992;51.698;-0.292;2024-01-15T12:07:35;9.52;;;6.03;;
22015;SDS011;64992;51.698;-0.292;2024-01-15T12:10:01;7.28;;;6.78;;
22015;SDS011;64992;51.698;-0.292;2024-01-15T12:15:02;7.13;;;4.75;;
22015;SDS011;64992;51.698;-0.292;2024-01-15T12:17:29;6.63;;;6.22;;
22015;SDS011;64992;51.698;-0.292;2024-01-15T12:19:55;5.10;;;4.90;;
22015;SDS011;64992;51.698;-0.292;2024-01-15T12:22:22;6.40;;;5.60;;
22015;SDS011;64992;51.698;-0.292;2024-01-15T12:24:48;5.65;;;5.25;;
22015;SDS011;64992;51.698;-0.292;2024-01-15T12:27:14;5.47;;;5.18;;
22015;SDS011;64992;51.698;-0.292;2024-01-15T12:29:40;4.80;;;4.60;;
22015;SDS011;64992;51.698;-0.292;2024-01-15T12:32:06;6.07;;;5.47;;
22015;SDS011;64992;51.698;-0.292;2024-01-15T12:34:33;5.47;;;5.00;;
22015;SDS011;64992;51.698;-0.292;2024-01-15T12:36:59;5.72;;;5.32;;
22015;SDS011;64992;51.698;-0.292;2024-01-15T12:39:25;5.63;;;5.40;;
22015;SDS011;64992;51.698;-0.292;2024-01-15T12:41:51;6.32;;;6.03;;
22015;SDS011;64992;51.698;-0.292;2024-01-15T12:44:17;5.65;;;5.35;;
22015;SDS011;64992;51.698;-0.292;2024-01-15T12:46:43;6.25;;;5.85;;
22015;SDS011;64992;51.698;-0.292;2024-01-15T12:49:09;6.82;;;4.63;;
22015;SDS011;64992;51.698;-0.292;2024-01-15T12:51:36;14.38;;;8.48;;
22015;SDS011;64992;51.698;-0.292;2024-01-15T12:54:02;5.55;;;5.25;;
22015;SDS011;64992;51.698;-0.292;2024-01-15T12:56:28;8.45;;;7.93;;
22015;SDS011;64992;51.698;-0.292;2024-01-15T12:58:54;5.60;;;5.30;;
22015;SDS011;64992;51.698;-0.292;2024-01-15T13:01:20;5.85;;;5.22;;
22015;SDS011;64992;51.698;-0.292;2024-01-15T13:03:46;5.72;;;5.32;;
22015;SDS011;64992;51.698;-0.292;2024-01-15T13:06:13;5.10;;;4.90;;
22015;SDS011;64992;51.698;-0.292;2024-01-15T13:08:39;11.20;;;5.97;;
22015;SDS011;64992;51.698;-0.292;2024-01-15T13:11:05;4.97;;;4.68;;
22015;SDS011;64992;51.698;-0.292;2024-01-15T13:13:31;5.72;;;5.32;;
22015;SDS011;64992;51.698;-0.292;2024-01-15T13:15:59;6.00;;;5.63;;
22015;SDS011;64992;51.698;-0.292;2024-01-15T13:18:25;6.50;;;4.97;;
22015;SDS011;64992;51.698;-0.292;2024-01-15T13:20:52;6.22;;;5.80;;
22015;SDS011;64992;51.698;-0.292;2024-01-15T13:23:19;5.28;;;4.97;;
22015;SDS011;64992;51.698;-0.292;2024-01-15T13:25:45;9.27;;;5.30;;
22015;SDS011;64992;51.698;-0.292;2024-01-15T13:28:11;6.00;;;5.47;;
22015;SDS011;64992;51.698;-0.292;2024-01-15T13:30:38;5.55;;;5.13;;
22015;SDS011;64992;51.698;-0.292;2024-01-15T13:33:04;6.32;;;5.72;;
22015;SDS011;64992;51.698;-0.292;2024-01-15T13:35:30;7.05;;;5.55;;
22015;SDS011;64992;51.698;-0.292;2024-01-15T13:37:57;5.32;;;5.03;;
22015;SDS011;64992;51.698;-0.292;2024-01-15T13:40:24;6.18;;;5.18;;
22015;SDS011;64992;51.698;-0.292;2024-01-15T13:42:50;10.15;;;5.28;;
22015;SDS011;64992;51.698;-0.292;2024-01-15T13:45:17;9.00;;;8.27;;
22015;SDS011;64992;51.698;-0.292;2024-01-15T13:47:45;5.80;;;5.30;;
22015;SDS011;64992;51.698;-0.292;2024-01-15T13:50:11;5.80;;;5.43;;
22015;SDS011;64992;51.698;-0.292;2024-01-15T13:52:38;4.95;;;4.55;;
22015;SDS011;64992;51.698;-0.292;2024-01-15T13:55:04;6.38;;;5.75;;
22015;SDS011;64992;51.698;-0.292;2024-01-15T13:57:31;5.05;;;4.75;;
22015;SDS011;64992;51.698;-0.292;2024-01-15T13:59:57;4.60;;;4.30;;
22015;SDS011;64992;51.698;-0.292;2024-01-15T14:02:24;5.25;;;4.82;;
22015;SDS011;64992;51.698;-0.292;2024-01-15T14:04:51;6.05;;;5.55;;
22015;SDS011;64992;51.698;-0.292;2024-01-15T14:07:17;5.47;;;5.28;;
22015;SDS011;64992;51.698;-0.292;2024-01-15T14:09:43;9.27;;;5.63;;
22015;SDS011;64992;51.698;-0.292;2024-01-15T14:12:09;9.43;;;5.63;;
22015;SDS011;64992;51.698;-0.292;2024-01-15T14:14:35;13.05;;;5.53;;
22015;SDS011;64992;51.698;-0.292;2024-01-15T14:17:01;7.05;;;6.10;;
22015;SDS011;64992;51.698;-0.292;2024-01-15T14:19:27;5.90;;;5.60;;
22015;SDS011;64992;51.698;-0.292;2024-01-15T14:21:53;5.32;;;5.13;;
22015;SDS011;64992;51.698;-0.292;2024-01-15T14:24:20;12.02;;;5.55;;
22015;SDS011;64992;51.698;-0.292;2024-01-15T14:26:46;5.38;;;4.97;;
22015;SDS011;64992;51.698;-0.292;2024-01-15T14:29:12;5.85;;;5.55;;